Terminal Aerodrome Forecast
Issued by NWS

Home | Current Version | Previous Version | Text Only | Print | Product List | Glossary On
Versions: 1 2 3 4 5 6 7 8 9 10 11 12 13 14 15 16 17 18 19 20 21 22 23 24 25 26 27 28 29
323
FTUS41 KBUF 251720
TAFJHW
TAF
KJHW 251720Z 2518/2618 26012G20KT P6SM OVC015
     FM252000 26018G26KT P6SM VCSH OVC015
     FM260300 27016G24KT 1SM -SN OVC008
     FM260800 28014G22KT 4SM -SHSN OVC025
     FM261500 17014G22KT P6SM VCSH BKN030
      AMD LTD TO CLD VIS AND WIND=

USA.gov is the U.S. government's official web portal to all federal, state and local government web resources and services.